Time;durP1;ratioP1;P1;durP2;ratioP2;P2;SDS_P1;SDS_P2;PMS_P1;PMS_P2;Temp;Humidity;BMP_temperature;BMP_pressure;BME280_temperature;BME280_humidity;BME280_pressure;Samples;Min_cycle;Max_cycle;Signal;HPM_P1;HPM_P2
2021/05/07 00:01:11;;;;;;;30.07;16.10;;;;;;;;;;5014165;28;20025;-81
2021/05/07 00:03:37;;;;;;;24.80;15.43;;;;;;;;;;5018200;28;20014;-80
2021/05/07 00:06:04;;;;;;;23.57;15.10;;;;;;;;;;5011252;28;20080;-81
2021/05/07 00:08:36;;;;;;;22.93;14.67;;;;;;;;;;5023280;28;20138;-80
2021/05/07 00:11:02;;;;;;;27.83;16.10;;;;;;;;;;5014252;28;20058;-81
2021/05/07 00:13:28;;;;;;;27.10;15.73;;;;;;;;;;5017025;28;20026;-80
2021/05/07 00:15:54;;;;;;;26.50;15.70;;;;;;;;;;5021274;28;20109;-81
2021/05/07 00:18:19;;;;;;;23.53;15.03;;;;;;;;;;5011321;28;20025;-81
2021/05/07 00:20:44;;;;;;;23.57;14.10;;;;;;;;;;5019298;28;20021;-80
2021/05/07 00:23:09;;;;;;;23.53;14.60;;;;;;;;;;5011669;28;20499;-81
2021/05/07 00:25:35;;;;;;;23.20;14.73;;;;;;;;;;5010150;28;20326;-81
2021/05/07 00:28:03;;;;;;;25.43;14.60;;;;;;;;;;5011445;28;20105;-81
2021/05/07 00:30:28;;;;;;;24.97;15.50;;;;;;;;;;5019545;28;20026;-81
2021/05/07 00:32:54;;;;;;;20.43;14.10;;;;;;;;;;5010493;28;20026;-81
2021/05/07 00:35:19;;;;;;;22.23;14.20;;;;;;;;;;5010328;28;20018;-81
2021/05/07 00:37:44;;;;;;;21.60;14.40;;;;;;;;;;5018089;28;20094;-81
2021/05/07 00:40:09;;;;;;;23.07;13.20;;;;;;;;;;5019467;28;20050;-80
2021/05/07 00:42:35;;;;;;;21.73;13.23;;;;;;;;;;5015994;28;20391;-80
2021/05/07 00:45:00;;;;;;;22.70;13.37;;;;;;;;;;5023746;28;20108;-81
2021/05/07 00:47:25;;;;;;;22.17;13.70;;;;;;;;;;5011206;28;20052;-81
2021/05/07 00:49:50;;;;;;;25.20;14.27;;;;;;;;;;5024129;28;20018;-80
2021/05/07 00:52:16;;;;;;;22.60;14.07;;;;;;;;;;5020514;28;20029;-81
2021/05/07 00:54:41;;;;;;;21.47;13.73;;;;;;;;;;5011718;28;20033;-80
2021/05/07 00:57:06;;;;;;;21.50;14.23;;;;;;;;;;5021682;28;20033;-80
2021/05/07 00:59:31;;;;;;;22.93;13.40;;;;;;;;;;5016576;28;20104;-81
2021/05/07 01:01:57;;;;;;;24.17;13.50;;;;;;;;;;5018157;28;20033;-81
2021/05/07 01:04:22;;;;;;;22.57;13.37;;;;;;;;;;5012604;28;20060;-80
2021/05/07 01:06:47;;;;;;;22.97;14.03;;;;;;;;;;5013873;28;20116;-80
2021/05/07 01:09:12;;;;;;;21.40;14.20;;;;;;;;;;5020965;28;20037;-81
2021/05/07 01:11:39;;;;;;;21.03;12.97;;;;;;;;;;5017472;28;20022;-80
2021/05/07 01:14:04;;;;;;;22.57;13.90;;;;;;;;;;5021646;28;20075;-81
2021/05/07 01:16:32;;;;;;;27.83;16.13;;;;;;;;;;5001439;28;20489;-81
2021/05/07 01:18:57;;;;;;;27.13;16.27;;;;;;;;;;5013433;28;20029;-81
2021/05/07 01:21:22;;;;;;;24.97;16.07;;;;;;;;;;5016755;28;20034;-81
2021/05/07 01:23:48;;;;;;;23.63;15.00;;;;;;;;;;5021395;28;20033;-80
2021/05/07 01:26:13;;;;;;;23.37;14.27;;;;;;;;;;5009933;28;20022;-81
2021/05/07 01:28:38;;;;;;;25.07;14.53;;;;;;;;;;5021192;28;20078;-81
2021/05/07 01:31:03;;;;;;;22.30;14.03;;;;;;;;;;5021376;28;20100;-81
2021/05/07 01:33:29;;;;;;;28.00;16.47;;;;;;;;;;5039382;28;20228;-80
2021/05/07 01:35:54;;;;;;;22.47;15.10;;;;;;;;;;5016936;28;20105;-80
2021/05/07 01:38:20;;;;;;;27.90;17.03;;;;;;;;;;5009703;28;20037;-81
2021/05/07 01:40:46;;;;;;;23.70;14.80;;;;;;;;;;5022853;28;20476;-81
2021/05/07 01:43:12;;;;;;;26.17;15.67;;;;;;;;;;5011761;28;20492;-81
2021/05/07 01:45:38;;;;;;;36.50;18.47;;;;;;;;;;5011670;28;20024;-81
2021/05/07 01:48:04;;;;;;;33.83;17.73;;;;;;;;;;5026604;28;20531;-80
2021/05/07 01:50:30;;;;;;;32.03;18.73;;;;;;;;;;5018123;28;20151;-81
2021/05/07 01:52:56;;;;;;;34.30;18.73;;;;;;;;;;5014615;28;20491;-81
2021/05/07 01:55:22;;;;;;;30.10;16.60;;;;;;;;;;5021433;28;20018;-80
2021/05/07 01:57:48;;;;;;;25.60;16.10;;;;;;;;;;5016641;28;20021;-81
2021/05/07 02:00:18;;;;;;;31.67;17.10;;;;;;;;;;5017552;28;20324;-81
2021/05/07 02:02:43;;;;;;;30.70;18.23;;;;;;;;;;5021564;28;20021;-81
2021/05/07 02:05:09;;;;;;;30.17;18.37;;;;;;;;;;5022421;28;20034;-81
2021/05/07 02:07:34;;;;;;;32.93;18.13;;;;;;;;;;5010289;28;20112;-81
2021/05/07 02:09:59;;;;;;;30.40;17.77;;;;;;;;;;5019510;28;20076;-80
2021/05/07 02:12:25;;;;;;;28.77;17.53;;;;;;;;;;5018815;28;20082;-81
2021/05/07 02:14:51;;;;;;;24.07;15.87;;;;;;;;;;5021236;28;20025;-81
2021/05/07 02:17:17;;;;;;;29.97;16.00;;;;;;;;;;5015627;28;20384;-81
2021/05/07 02:19:42;;;;;;;28.17;17.07;;;;;;;;;;5010532;28;20037;-81
2021/05/07 02:22:07;;;;;;;28.50;17.30;;;;;;;;;;5023248;28;20025;-81
2021/05/07 02:24:32;;;;;;;30.47;17.37;;;;;;;;;;5012853;28;20461;-81
2021/05/07 02:26:58;;;;;;;29.13;16.40;;;;;;;;;;5018394;28;20468;-81
2021/05/07 02:29:23;;;;;;;26.47;16.10;;;;;;;;;;5020194;28;20056;-81
2021/05/07 02:31:48;;;;;;;29.60;16.90;;;;;;;;;;5013040;28;20376;-81
2021/05/07 02:34:13;;;;;;;27.07;15.87;;;;;;;;;;5008161;28;20018;-80
2021/05/07 02:36:39;;;;;;;24.40;15.27;;;;;;;;;;5008481;28;20075;-80
2021/05/07 02:39:05;;;;;;;26.20;14.87;;;;;;;;;;5016426;28;20014;-80
2021/05/07 02:41:30;;;;;;;27.33;16.00;;;;;;;;;;5012193;28;20034;-81
2021/05/07 02:43:55;;;;;;;25.87;16.70;;;;;;;;;;5015484;28;20128;-80
2021/05/07 02:46:20;;;;;;;25.07;15.53;;;;;;;;;;5013626;28;20113;-81
2021/05/07 02:48:46;;;;;;;27.83;16.50;;;;;;;;;;5014612;28;20511;-80
2021/05/07 02:51:11;;;;;;;27.57;17.00;;;;;;;;;;5017289;28;20022;-81
2021/05/07 02:53:36;;;;;;;28.97;16.57;;;;;;;;;;5015828;28;20018;-81
2021/05/07 02:56:01;;;;;;;28.73;17.63;;;;;;;;;;5018626;28;20025;-81
2021/05/07 02:58:26;;;;;;;28.20;16.07;;;;;;;;;;5014264;28;20028;-81
2021/05/07 03:00:52;;;;;;;27.77;17.03;;;;;;;;;;5021637;28;20014;-80
2021/05/07 03:03:17;;;;;;;28.43;17.00;;;;;;;;;;5014881;28;20476;-81
2021/05/07 03:05:42;;;;;;;29.40;17.27;;;;;;;;;;5012482;28;20581;-81
2021/05/07 03:08:07;;;;;;;30.97;17.57;;;;;;;;;;5021661;28;20022;-81
2021/05/07 03:10:32;;;;;;;28.83;16.90;;;;;;;;;;5011281;28;20026;-80
2021/05/07 03:12:58;;;;;;;29.40;18.17;;;;;;;;;;5009023;28;20471;-81
2021/05/07 03:15:23;;;;;;;31.90;18.57;;;;;;;;;;5014227;28;20056;-81
2021/05/07 03:17:52;;;;;;;30.27;17.60;;;;;;;;;;5012107;28;20033;-81
2021/05/07 03:20:18;;;;;;;33.50;18.00;;;;;;;;;;5012385;28;20045;-80
2021/05/07 03:22:43;;;;;;;28.30;18.57;;;;;;;;;;5011287;28;20029;-81
2021/05/07 03:25:08;;;;;;;35.67;20.07;;;;;;;;;;5015441;28;20038;-81
2021/05/07 03:27:33;;;;;;;33.57;19.50;;;;;;;;;;5016432;28;20050;-81
2021/05/07 03:29:58;;;;;;;33.10;19.87;;;;;;;;;;5022190;28;20022;-81
2021/05/07 03:32:24;;;;;;;35.63;20.87;;;;;;;;;;5018089;28;20026;-81
2021/05/07 03:34:49;;;;;;;34.60;21.90;;;;;;;;;;5022824;28;20108;-80
2021/05/07 03:37:15;;;;;;;38.30;21.37;;;;;;;;;;5011234;28;20029;-81
2021/05/07 03:39:40;;;;;;;34.07;19.20;;;;;;;;;;5014707;28;20116;-80
2021/05/07 03:42:05;;;;;;;30.07;18.60;;;;;;;;;;5014612;28;20038;-81
2021/05/07 03:44:31;;;;;;;35.93;18.57;;;;;;;;;;5015667;28;20672;-81
2021/05/07 03:46:57;;;;;;;29.97;17.87;;;;;;;;;;5012334;28;20028;-81
2021/05/07 03:49:22;;;;;;;30.23;18.27;;;;;;;;;;5025238;28;20026;-81
2021/05/07 03:51:48;;;;;;;28.23;17.03;;;;;;;;;;5010699;28;20033;-81
2021/05/07 03:54:13;;;;;;;30.63;18.33;;;;;;;;;;5010668;28;20022;-81
2021/05/07 03:56:38;;;;;;;29.97;17.47;;;;;;;;;;5023562;28;20021;-81
2021/05/07 03:59:03;;;;;;;31.77;19.07;;;;;;;;;;5011912;28;20151;-81
2021/05/07 04:01:28;;;;;;;31.30;18.53;;;;;;;;;;5015145;28;20018;-81
2021/05/07 04:03:54;;;;;;;32.33;18.13;;;;;;;;;;5012575;28;20071;-81
2021/05/07 04:06:20;;;;;;;26.17;17.30;;;;;;;;;;5024138;28;20029;-80
2021/05/07 04:08:57;;;;;;;32.00;17.27;;;;;;;;;;5016569;28;20173;-80
2021/05/07 04:13:51;;;;;;;30.57;16.87;;;;;;;;;;5021989;28;20105;-80
2021/05/07 04:16:16;;;;;;;30.73;18.40;;;;;;;;;;5013559;28;20049;-81
2021/05/07 04:18:41;;;;;;;34.90;18.83;;;;;;;;;;5021530;28;20010;-81
2021/05/07 04:21:06;;;;;;;29.80;18.37;;;;;;;;;;5017089;28;20018;-80
2021/05/07 04:23:32;;;;;;;33.47;17.67;;;;;;;;;;5014233;28;20087;-81
2021/05/07 04:25:57;;;;;;;31.73;17.63;;;;;;;;;;5016116;28;20025;-81
2021/05/07 04:28:22;;;;;;;33.27;17.90;;;;;;;;;;5019375;28;20030;-81
2021/05/07 04:30:48;;;;;;;28.97;16.77;;;;;;;;;;5017693;28;20030;-80
2021/05/07 04:33:13;;;;;;;29.93;16.67;;;;;;;;;;5023912;28;20041;-81
2021/05/07 04:35:38;;;;;;;25.70;16.03;;;;;;;;;;5019527;28;20014;-81
2021/05/07 04:38:04;;;;;;;28.07;17.10;;;;;;;;;;5014885;28;20499;-81
2021/05/07 04:40:29;;;;;;;25.53;15.20;;;;;;;;;;5020786;28;20488;-81
2021/05/07 04:42:54;;;;;;;27.10;15.93;;;;;;;;;;5022289;28;20025;-80
2021/05/07 04:45:20;;;;;;;27.53;16.77;;;;;;;;;;5014812;28;20718;-81
2021/05/07 04:47:45;;;;;;;27.70;16.10;;;;;;;;;;5015788;28;20026;-81
2021/05/07 04:50:11;;;;;;;28.43;16.73;;;;;;;;;;5014910;28;20053;-80
2021/05/07 04:52:37;;;;;;;27.10;15.57;;;;;;;;;;5021915;28;20030;-81
2021/05/07 04:55:02;;;;;;;28.50;16.60;;;;;;;;;;5011886;28;20022;-81
2021/05/07 04:57:30;;;;;;;28.73;16.27;;;;;;;;;;5012905;28;20025;-81
2021/05/07 04:59:55;;;;;;;28.27;16.80;;;;;;;;;;5027079;28;20082;-81
2021/05/07 05:02:21;;;;;;;27.47;15.17;;;;;;;;;;5022379;28;20034;-81
2021/05/07 05:04:46;;;;;;;27.23;15.20;;;;;;;;;;5020897;28;20057;-80
2021/05/07 05:07:12;;;;;;;26.93;14.07;;;;;;;;;;5016470;28;20060;-81
2021/05/07 05:09:37;;;;;;;24.63;14.40;;;;;;;;;;5018164;28;20105;-80
2021/05/07 05:12:02;;;;;;;25.53;15.83;;;;;;;;;;5009577;28;20537;-81
2021/05/07 05:14:28;;;;;;;29.10;14.27;;;;;;;;;;5014318;28;20053;-80
2021/05/07 05:16:53;;;;;;;27.13;13.83;;;;;;;;;;5033932;28;20024;-81
2021/05/07 05:19:18;;;;;;;23.20;12.73;;;;;;;;;;5025262;28;20013;-81
2021/05/07 05:21:43;;;;;;;21.17;13.10;;;;;;;;;;5018574;28;20014;-83
2021/05/07 05:24:09;;;;;;;21.93;12.00;;;;;;;;;;5010045;28;20060;-82
2021/05/07 05:26:34;;;;;;;19.97;12.03;;;;;;;;;;5009891;28;20068;-82
2021/05/07 05:28:59;;;;;;;21.67;13.10;;;;;;;;;;5009543;28;20034;-82
2021/05/07 05:31:24;;;;;;;23.37;12.23;;;;;;;;;;5018527;28;20026;-82
2021/05/07 05:33:50;;;;;;;25.77;12.47;;;;;;;;;;5017273;28;20018;-83
2021/05/07 05:36:15;;;;;;;24.93;12.93;;;;;;;;;;5020512;28;20028;-82
2021/05/07 05:38:40;;;;;;;21.63;11.13;;;;;;;;;;5008978;28;20097;-82
2021/05/07 05:41:05;;;;;;;21.67;11.20;;;;;;;;;;5008859;28;20029;-83
2021/05/07 05:43:30;;;;;;;20.93;12.53;;;;;;;;;;5019131;28;20751;-83
2021/05/07 05:45:56;;;;;;;20.27;11.47;;;;;;;;;;5009361;28;20030;-83
2021/05/07 05:48:22;;;;;;;15.10;9.43;;;;;;;;;;5008569;28;20437;-82
2021/05/07 05:50:49;;;;;;;9.67;5.87;;;;;;;;;;5008264;28;20025;-82
2021/05/07 05:53:14;;;;;;;12.53;8.43;;;;;;;;;;4998558;28;20391;-82
2021/05/07 05:55:40;;;;;;;14.73;8.37;;;;;;;;;;5009769;28;20030;-82
2021/05/07 05:58:05;;;;;;;8.20;5.13;;;;;;;;;;5022196;28;20085;-82
2021/05/07 06:00:30;;;;;;;12.57;7.80;;;;;;;;;;5036324;28;20067;-82
2021/05/07 06:02:56;;;;;;;11.17;7.63;;;;;;;;;;5019408;28;20104;-82
2021/05/07 06:05:21;;;;;;;11.57;8.83;;;;;;;;;;5009959;28;20018;-82
2021/05/07 06:07:47;;;;;;;10.30;7.13;;;;;;;;;;5020933;28;20082;-83
2021/05/07 06:10:13;;;;;;;8.93;6.83;;;;;;;;;;5035779;28;20541;-82
2021/05/07 06:12:39;;;;;;;8.30;6.20;;;;;;;;;;5020903;28;20385;-82
2021/05/07 06:15:05;;;;;;;7.27;6.03;;;;;;;;;;5015489;28;20037;-83
2021/05/07 06:17:30;;;;;;;7.67;6.60;;;;;;;;;;5059413;28;20030;-83
2021/05/07 06:20:01;;;;;;;8.13;6.40;;;;;;;;;;5009973;28;20018;-82
2021/05/07 06:22:27;;;;;;;8.10;6.37;;;;;;;;;;5019289;28;20087;-82
2021/05/07 06:24:52;;;;;;;7.53;5.97;;;;;;;;;;5036565;28;20033;-82
2021/05/07 06:27:17;;;;;;;5.57;4.73;;;;;;;;;;5013860;28;20104;-82
2021/05/07 06:29:42;;;;;;;4.73;3.93;;;;;;;;;;5007464;28;20022;-83
2021/05/07 06:32:07;;;;;;;4.00;3.27;;;;;;;;;;5011268;28;20033;-82
2021/05/07 06:34:33;;;;;;;4.73;3.60;;;;;;;;;;5015726;28;20022;-87
2021/05/07 06:36:59;;;;;;;3.97;3.20;;;;;;;;;;5016747;28;20429;-83
2021/05/07 06:39:28;;;;;;;3.87;3.10;;;;;;;;;;5011068;28;20022;-83
2021/05/07 06:41:54;;;;;;;3.60;2.70;;;;;;;;;;5036984;28;20031;-83
2021/05/07 06:44:19;;;;;;;3.90;2.97;;;;;;;;;;5009447;28;20030;-82
2021/05/07 06:46:44;;;;;;;3.93;2.63;;;;;;;;;;5007628;28;20105;-82
2021/05/07 06:49:09;;;;;;;4.13;2.60;;;;;;;;;;5011936;28;20471;-82
2021/05/07 06:51:34;;;;;;;5.70;2.80;;;;;;;;;;5010183;28;20030;-83
2021/05/07 06:53:59;;;;;;;5.60;3.03;;;;;;;;;;5008682;28;20022;-83
2021/05/07 06:56:25;;;;;;;3.30;2.80;;;;;;;;;;5013580;28;20368;-82
2021/05/07 06:58:50;;;;;;;4.03;3.17;;;;;;;;;;5016208;28;20466;-83
2021/05/07 07:01:16;;;;;;;3.90;3.47;;;;;;;;;;5014812;28;20018;-83
2021/05/07 07:03:41;;;;;;;5.77;4.93;;;;;;;;;;5018643;28;20025;-83
2021/05/07 07:06:06;;;;;;;6.20;5.00;;;;;;;;;;5014307;28;20021;-83
2021/05/07 07:08:32;;;;;;;10.63;6.50;;;;;;;;;;5017655;28;20021;-82
2021/05/07 07:10:58;;;;;;;10.40;6.63;;;;;;;;;;5012016;28;20021;-82
2021/05/07 07:13:24;;;;;;;8.63;7.50;;;;;;;;;;5022124;28;20494;-83
2021/05/07 07:15:49;;;;;;;7.93;7.13;;;;;;;;;;5019335;28;20018;-83
2021/05/07 07:18:17;;;;;;;8.60;6.63;;;;;;;;;;5014812;28;20010;-83
2021/05/07 07:20:42;;;;;;;7.10;6.30;;;;;;;;;;5018462;28;20021;-82
2021/05/07 07:23:07;;;;;;;8.03;6.13;;;;;;;;;;5020219;28;20157;-83
2021/05/07 07:25:33;;;;;;;7.10;5.90;;;;;;;;;;5014156;28;20132;-82
2021/05/07 07:27:58;;;;;;;6.80;5.90;;;;;;;;;;5011782;28;20045;-83
2021/05/07 07:30:23;;;;;;;4.90;4.40;;;;;;;;;;5017997;28;20022;-82
2021/05/07 07:32:48;;;;;;;4.70;3.83;;;;;;;;;;5015496;28;20056;-82
2021/05/07 07:35:16;;;;;;;5.20;4.00;;;;;;;;;;5013656;28;20029;-82
2021/05/07 07:37:41;;;;;;;6.60;4.37;;;;;;;;;;5015936;28;20092;-82
2021/05/07 07:40:06;;;;;;;4.93;4.17;;;;;;;;;;5020833;28;20034;-83
2021/05/07 07:42:32;;;;;;;4.37;3.60;;;;;;;;;;5017412;28;20021;-83
2021/05/07 07:44:57;;;;;;;5.27;4.00;;;;;;;;;;5014525;28;20082;-82
2021/05/07 07:47:22;;;;;;;7.23;4.07;;;;;;;;;;5022588;28;20506;-82
2021/05/07 07:49:47;;;;;;;8.00;4.80;;;;;;;;;;5026045;28;20029;-82
2021/05/07 07:52:13;;;;;;;6.00;4.70;;;;;;;;;;5012752;28;20038;-82
2021/05/07 07:54:39;;;;;;;6.00;4.60;;;;;;;;;;5028503;28;20459;-82
2021/05/07 07:57:05;;;;;;;6.77;4.70;;;;;;;;;;5019793;28;20018;-82
2021/05/07 07:59:30;;;;;;;6.17;5.07;;;;;;;;;;5015006;28;20036;-82
2021/05/07 08:01:55;;;;;;;6.23;5.40;;;;;;;;;;5019247;28;20021;-82
2021/05/07 08:04:21;;;;;;;7.10;5.40;;;;;;;;;;5011090;28;20037;-82
2021/05/07 08:06:46;;;;;;;7.90;4.87;;;;;;;;;;5016780;28;20026;-83
2021/05/07 08:09:12;;;;;;;8.17;5.47;;;;;;;;;;5018761;28;20049;-82
2021/05/07 08:11:37;;;;;;;6.50;5.20;;;;;;;;;;5025913;28;20014;-83
2021/05/07 08:14:02;;;;;;;5.83;4.87;;;;;;;;;;5019604;28;20018;-82
2021/05/07 08:16:29;;;;;;;6.07;4.87;;;;;;;;;;5016116;28;20053;-82
2021/05/07 08:18:54;;;;;;;7.13;4.93;;;;;;;;;;5021871;28;20024;-82
2021/05/07 08:21:21;;;;;;;8.60;5.70;;;;;;;;;;5022519;28;20116;-83
2021/05/07 08:23:46;;;;;;;8.60;5.20;;;;;;;;;;5010626;28;20018;-82
2021/05/07 08:26:11;;;;;;;9.47;5.50;;;;;;;;;;5018475;28;20103;-82
2021/05/07 08:28:36;;;;;;;9.47;5.70;;;;;;;;;;5019728;28;20401;-83
2021/05/07 08:31:01;;;;;;;9.50;5.30;;;;;;;;;;5029127;28;20111;-82
2021/05/07 08:33:26;;;;;;;6.87;5.57;;;;;;;;;;5030863;28;20654;-82
2021/05/07 08:35:52;;;;;;;9.90;6.03;;;;;;;;;;5010475;28;20021;-82
2021/05/07 08:38:17;;;;;;;10.10;5.73;;;;;;;;;;5022180;28;20382;-83
2021/05/07 08:40:42;;;;;;;7.17;5.60;;;;;;;;;;5020333;28;20066;-82
2021/05/07 08:43:08;;;;;;;10.27;5.30;;;;;;;;;;5021942;28;20120;-82
2021/05/07 08:45:33;;;;;;;8.33;5.40;;;;;;;;;;5030925;28;20085;-82
2021/05/07 08:47:59;;;;;;;10.87;6.10;;;;;;;;;;5014192;28;20408;-82
2021/05/07 08:50:24;;;;;;;8.53;6.47;;;;;;;;;;5019048;28;20028;-83
2021/05/07 08:52:49;;;;;;;8.37;6.17;;;;;;;;;;5017192;28;20065;-83
2021/05/07 08:55:14;;;;;;;7.60;5.80;;;;;;;;;;5026085;28;20022;-82
2021/05/07 08:57:40;;;;;;;8.77;6.03;;;;;;;;;;5011544;28;20100;-82
2021/05/07 09:00:06;;;;;;;11.07;5.83;;;;;;;;;;5034488;28;20025;-82
2021/05/07 09:02:32;;;;;;;7.93;6.50;;;;;;;;;;5012547;28;20028;-82
2021/05/07 09:04:58;;;;;;;7.97;5.37;;;;;;;;;;5020005;28;20018;-82
2021/05/07 09:07:24;;;;;;;8.30;5.13;;;;;;;;;;5017783;28;20030;-81
2021/05/07 09:09:58;;;;;;;9.50;4.70;;;;;;;;;;5030279;28;20388;-81
2021/05/07 09:12:33;;;;;;;6.03;5.07;;;;;;;;;;5022891;28;20107;-82
2021/05/07 09:15:00;;;;;;;13.70;5.50;;;;;;;;;;5019069;28;20358;-82
2021/05/07 09:17:26;;;;;;;6.37;4.83;;;;;;;;;;5016432;28;20025;-82
2021/05/07 09:20:02;;;;;;;6.40;4.30;;;;;;;;;;5022646;28;20018;-81
2021/05/07 09:22:27;;;;;;;7.03;4.10;;;;;;;;;;5009131;28;20504;-80
2021/05/07 09:25:08;;;;;;;8.13;4.13;;;;;;;;;;5019574;28;20049;-82
2021/05/07 09:27:34;;;;;;;6.73;4.57;;;;;;;;;;5014916;28;20036;-82
2021/05/07 09:29:59;;;;;;;7.73;4.73;;;;;;;;;;5017400;28;20220;-82
2021/05/07 09:32:29;;;;;;;7.80;4.07;;;;;;;;;;5015825;28;20034;-82
2021/05/07 09:35:04;;;;;;;6.60;4.20;;;;;;;;;;5024667;28;20376;-82
2021/05/07 09:37:30;;;;;;;9.17;4.67;;;;;;;;;;5018944;28;20131;-82
2021/05/07 09:39:55;;;;;;;8.43;3.93;;;;;;;;;;5014118;28;20120;-82
2021/05/07 09:42:21;;;;;;;5.33;3.50;;;;;;;;;;5023132;28;20034;-82
2021/05/07 09:44:47;;;;;;;6.63;3.90;;;;;;;;;;5010748;28;20036;-82
2021/05/07 09:47:13;;;;;;;10.53;4.00;;;;;;;;;;5019741;28;20395;-82
2021/05/07 09:49:39;;;;;;;7.13;3.90;;;;;;;;;;5010915;28;20022;-81
2021/05/07 09:52:04;;;;;;;9.57;4.37;;;;;;;;;;5009266;28;20495;-82
2021/05/07 09:54:29;;;;;;;7.10;3.90;;;;;;;;;;5015784;28;20033;-81
2021/05/07 09:56:55;;;;;;;7.33;3.97;;;;;;;;;;5012834;28;20050;-82
2021/05/07 09:59:20;;;;;;;5.77;4.43;;;;;;;;;;5009667;28;20032;-82
2021/05/07 10:01:46;;;;;;;6.80;4.03;;;;;;;;;;5017439;28;20026;-82
2021/05/07 10:04:12;;;;;;;11.33;4.37;;;;;;;;;;5019623;28;20025;-82
2021/05/07 10:06:38;;;;;;;10.20;4.60;;;;;;;;;;5013090;28;20029;-82
2021/05/07 10:09:04;;;;;;;6.33;3.97;;;;;;;;;;5020031;28;20490;-81
2021/05/07 10:11:34;;;;;;;7.17;4.50;;;;;;;;;;5016593;28;20026;-81
2021/05/07 10:14:04;;;;;;;10.10;5.07;;;;;;;;;;5021419;28;20042;-81
2021/05/07 10:16:30;;;;;;;10.80;5.30;;;;;;;;;;5044390;28;20022;-81
2021/05/07 10:18:59;;;;;;;8.70;5.97;;;;;;;;;;5012380;28;20419;-81
2021/05/07 10:21:32;;;;;;;6.63;5.47;;;;;;;;;;5023538;28;20118;-82
2021/05/07 10:23:58;;;;;;;8.07;6.18;;;;;;;;;;5016916;28;20137;-82
2021/05/07 10:26:33;;;;;;;9.15;5.57;;;;;;;;;;5038354;28;20030;-82
2021/05/07 10:28:58;;;;;;;11.80;4.88;;;;;;;;;;5014583;28;20112;-82
2021/05/07 10:31:23;;;;;;;8.00;4.47;;;;;;;;;;5009206;28;20108;-81
2021/05/07 10:33:58;;;;;;;7.23;4.80;;;;;;;;;;5017519;28;20036;-81
2021/05/07 10:36:40;;;;;;;8.53;4.70;;;;;;;;;;5028981;28;20023;-82
2021/05/07 10:39:15;;;;;;;6.70;5.83;;;;;;;;;;5034628;28;20029;-82
2021/05/07 10:41:40;;;;;;;8.63;5.22;;;;;;;;;;5008387;28;20121;-82
2021/05/07 10:44:05;;;;;;;7.27;3.50;;;;;;;;;;5008405;28;20101;-82
2021/05/07 10:46:31;;;;;;;8.73;4.70;;;;;;;;;;5017939;28;20368;-81
2021/05/07 10:48:57;;;;;;;7.40;4.30;;;;;;;;;;5021021;28;20018;-82
2021/05/07 10:51:23;;;;;;;7.57;3.75;;;;;;;;;;5007750;28;20038;-82
2021/05/07 10:53:49;;;;;;;6.20;3.95;;;;;;;;;;5009200;28;20451;-83
2021/05/07 10:56:14;;;;;;;8.05;3.70;;;;;;;;;;5045481;28;20033;-82
2021/05/07 10:58:39;;;;;;;5.93;3.95;;;;;;;;;;5010887;28;20388;-82
2021/05/07 11:01:15;;;;;;;8.30;4.43;;;;;;;;;;5019791;28;20448;-82
2021/05/07 11:03:40;;;;;;;7.32;4.28;;;;;;;;;;5015588;28;20113;-83
2021/05/07 11:06:05;;;;;;;4.97;4.03;;;;;;;;;;5044196;28;20460;-83
2021/05/07 11:08:31;;;;;;;6.20;4.33;;;;;;;;;;5008904;28;20841;-82
2021/05/07 11:10:57;;;;;;;6.22;3.75;;;;;;;;;;5008006;28;20431;-82
2021/05/07 11:13:22;;;;;;;6.93;4.28;;;;;;;;;;5013618;28;20030;-82
2021/05/07 11:15:54;;;;;;;5.95;3.88;;;;;;;;;;5018348;28;20548;-81
2021/05/07 11:18:25;;;;;;;6.07;4.20;;;;;;;;;;5005570;28;20030;-82
2021/05/07 11:20:51;;;;;;;8.40;4.20;;;;;;;;;;5007458;28;20053;-82
2021/05/07 11:23:16;;;;;;;7.78;4.53;;;;;;;;;;5024575;28;20476;-82
2021/05/07 11:25:42;;;;;;;5.90;4.38;;;;;;;;;;5008403;28;20117;-82
2021/05/07 11:28:11;;;;;;;6.78;4.10;;;;;;;;;;5008759;28;20022;-82
2021/05/07 11:30:53;;;;;;;7.78;4.07;;;;;;;;;;5009215;28;20034;-82
2021/05/07 11:33:19;;;;;;;6.90;3.70;;;;;;;;;;5008552;28;20036;-82
2021/05/07 11:35:45;;;;;;;9.50;4.25;;;;;;;;;;5009292;28;20018;-83
2021/05/07 11:38:10;;;;;;;8.98;4.78;;;;;;;;;;5006923;28;20074;-82
2021/05/07 11:40:37;;;;;;;6.75;4.68;;;;;;;;;;5014387;28;20024;-82
2021/05/07 11:43:09;;;;;;;7.10;4.82;;;;;;;;;;5018601;28;20040;-82
2021/05/07 11:45:35;;;;;;;8.00;4.85;;;;;;;;;;5012836;28;20426;-82
2021/05/07 11:48:07;;;;;;;5.22;4.55;;;;;;;;;;5017974;28;20021;-83
2021/05/07 11:50:32;;;;;;;7.50;4.78;;;;;;;;;;5030228;28;20384;-84
2021/05/07 11:52:57;;;;;;;5.97;4.72;;;;;;;;;;5027691;28;20026;-83
2021/05/07 11:55:24;;;;;;;7.88;5.18;;;;;;;;;;5018936;28;20552;-83
2021/05/07 11:57:56;;;;;;;8.57;5.03;;;;;;;;;;5017960;28;20018;-83
2021/05/07 12:00:21;;;;;;;9.13;5.15;;;;;;;;;;5020407;28;20068;-83
2021/05/07 12:02:56;;;;;;;12.10;6.13;;;;;;;;;;5016323;28;20071;-84
2021/05/07 12:05:27;;;;;;;7.20;5.45;;;;;;;;;;5019452;28;20021;-84
2021/05/07 12:07:52;;;;;;;7.88;5.43;;;;;;;;;;5016785;28;20022;-85
2021/05/07 12:10:22;;;;;;;10.63;5.78;;;;;;;;;;5020052;28;20388;-84
2021/05/07 12:12:47;;;;;;;8.70;5.50;;;;;;;;;;5010058;28;20022;-85
2021/05/07 12:15:13;;;;;;;8.90;5.50;;;;;;;;;;5011482;28;20044;-84
2021/05/07 12:17:42;;;;;;;7.68;6.07;;;;;;;;;;5012340;28;20109;-85
2021/05/07 12:20:08;;;;;;;8.52;5.88;;;;;;;;;;5009492;28;20368;-85
2021/05/07 12:22:33;;;;;;;9.57;6.10;;;;;;;;;;5045999;28;20033;-84
2021/05/07 12:25:08;;;;;;;18.15;6.55;;;;;;;;;;5019698;28;20025;-85
2021/05/07 12:27:34;;;;;;;9.88;5.65;;;;;;;;;;5017115;28;20022;-85
2021/05/07 12:29:59;;;;;;;12.43;6.30;;;;;;;;;;5015050;28;20029;-84
2021/05/07 12:32:24;;;;;;;7.57;4.60;;;;;;;;;;5022906;28;20026;-84
2021/05/07 12:35:00;;;;;;;12.68;5.70;;;;;;;;;;5017295;28;20018;-85
2021/05/07 12:37:35;;;;;;;8.63;5.93;;;;;;;;;;5017538;28;20125;-85
2021/05/07 12:40:00;;;;;;;10.35;5.60;;;;;;;;;;5029907;28;20018;-84
2021/05/07 12:42:26;;;;;;;10.10;5.20;;;;;;;;;;5012705;28;20032;-84
2021/05/07 12:44:51;;;;;;;9.98;5.53;;;;;;;;;;5012649;28;20022;-84
2021/05/07 12:47:16;;;;;;;14.05;6.47;;;;;;;;;;5034300;28;20058;-85
2021/05/07 12:49:41;;;;;;;9.27;6.40;;;;;;;;;;5020462;28;20021;-84
2021/05/07 12:52:06;;;;;;;7.80;5.95;;;;;;;;;;5017097;28;20033;-85
2021/05/07 12:54:32;;;;;;;10.73;6.03;;;;;;;;;;5013620;28;20074;-85
2021/05/07 12:56:58;;;;;;;9.68;6.15;;;;;;;;;;5020078;28;20458;-84
2021/05/07 12:59:23;;;;;;;14.13;5.72;;;;;;;;;;5053379;28;20031;-84
2021/05/07 13:01:49;;;;;;;8.23;5.63;;;;;;;;;;5013847;28;20418;-85
2021/05/07 13:04:14;;;;;;;10.05;6.60;;;;;;;;;;5020684;28;20014;-84
2021/05/07 13:06:39;;;;;;;9.90;6.70;;;;;;;;;;5016214;28;20612;-84
2021/05/07 13:09:04;;;;;;;12.73;5.60;;;;;;;;;;5009833;28;20018;-84
2021/05/07 13:11:29;;;;;;;11.27;6.40;;;;;;;;;;5009845;28;20021;-84
2021/05/07 13:13:54;;;;;;;6.93;5.63;;;;;;;;;;5021764;28;20025;-84
2021/05/07 13:16:20;;;;;;;7.32;4.82;;;;;;;;;;5011729;28;20030;-85
2021/05/07 13:18:46;;;;;;;7.70;4.70;;;;;;;;;;5010819;28;20050;-85
2021/05/07 13:21:11;;;;;;;9.95;5.25;;;;;;;;;;5020286;28;20050;-84
2021/05/07 13:23:36;;;;;;;7.97;5.28;;;;;;;;;;5020543;28;20060;-85
2021/05/07 13:26:01;;;;;;;8.35;5.75;;;;;;;;;;5020227;28;20477;-85
2021/05/07 13:28:27;;;;;;;8.77;5.63;;;;;;;;;;5012823;28;20030;-85
2021/05/07 13:30:52;;;;;;;8.70;5.65;;;;;;;;;;5020908;28;20022;-85
2021/05/07 13:33:21;;;;;;;8.27;5.20;;;;;;;;;;5058533;27;20118;-85
2021/05/07 13:35:46;;;;;;;7.03;4.93;;;;;;;;;;5016766;28;20373;-85
2021/05/07 13:38:12;;;;;;;10.93;4.47;;;;;;;;;;5008970;28;20022;-85
2021/05/07 13:40:37;;;;;;;8.90;4.82;;;;;;;;;;5016480;28;20072;-85
2021/05/07 13:43:03;;;;;;;11.02;4.70;;;;;;;;;;5027591;28;20068;-83
2021/05/07 13:45:28;;;;;;;6.38;3.85;;;;;;;;;;5027702;28;20053;-84
2021/05/07 13:47:54;;;;;;;9.77;5.22;;;;;;;;;;5017778;28;20026;-84
2021/05/07 13:50:19;;;;;;;8.95;4.97;;;;;;;;;;5010491;28;20014;-84
2021/05/07 13:52:45;;;;;;;11.38;4.60;;;;;;;;;;5028543;28;20025;-84
2021/05/07 13:55:10;;;;;;;7.70;4.38;;;;;;;;;;5011443;28;20384;-84
2021/05/07 13:57:36;;;;;;;5.95;4.75;;;;;;;;;;5010658;28;20385;-84
2021/05/07 14:00:03;;;;;;;6.68;4.50;;;;;;;;;;5019290;28;20116;-84
2021/05/07 14:02:28;;;;;;;5.72;4.10;;;;;;;;;;5017028;28;20026;-85
2021/05/07 14:04:53;;;;;;;8.13;4.80;;;;;;;;;;5016872;28;20052;-84
2021/05/07 14:07:19;;;;;;;11.82;4.70;;;;;;;;;;5017548;28;20018;-84
2021/05/07 14:09:44;;;;;;;6.45;4.50;;;;;;;;;;5015603;28;20042;-85
2021/05/07 14:12:10;;;;;;;7.03;4.80;;;;;;;;;;5011911;28;20037;-85
2021/05/07 14:14:35;;;;;;;10.10;4.78;;;;;;;;;;5032042;28;20085;-85
2021/05/07 14:17:00;;;;;;;6.95;4.70;;;;;;;;;;5008077;28;20734;-85
2021/05/07 14:19:25;;;;;;;6.93;4.30;;;;;;;;;;5013664;28;20017;-85
2021/05/07 14:21:52;;;;;;;10.40;5.13;;;;;;;;;;5028634;28;20018;-84
2021/05/07 14:24:18;;;;;;;7.30;4.40;;;;;;;;;;5036323;28;20029;-85
2021/05/07 14:26:43;;;;;;;9.15;4.90;;;;;;;;;;5065470;28;20021;-84